Nearby METAR Reports


KSYR - Syracuse, New York, USA
Distance from station: SE 5mi, 8km
Updated: Sat, 25-May-2019 12:54pm EDT
Light rain, Overcast
Light rain, Overcast
 Wind from S
Wind: S 12 mph , 19 km/h
Temperature: 64°F , 18°C
Dew Point: 55°F , 13°C
Humidity: 73%
Barometer: 30.06 inHg , 1017.9 hPa
Summary: Light rain
Clouds: Overcast
Visibility: 8 miles , 13 km
Cloud details: Few Clouds 6500 ft
Mostly cloudy 9500 ft
Overcast 11000 ft
2019/05/25 16:54 KSYR 251654Z 17010KT 8SM -RA FEW065 BKN095 OVC110 18/13 A3006 RMK AO2 RAB13 SLP176 P0004 T01780133 $
KFZY - Fulton, New York, USA
Distance from station: NW 17mi, 27km
Updated: Sat, 25-May-2019 12:54pm EDT
Overcast
Overcast
 Wind from S
Wind: S 12 mph , 19 km/h
Temperature: 64°F , 18°C
Dew Point: 55°F , 13°C
Humidity: 73%
Barometer: 30.04 inHg , 1017.3 hPa
Clouds: Overcast
Visibility: 10 miles , 16 km
Cloud details: Few Clouds 3500 ft
Partly cloudy 5000 ft
Overcast 7500 ft
2019/05/25 16:54 KFZY 251654Z AUTO 17010KT 10SM FEW035 SCT050 OVC075 18/13 A3004 RMK AO2 RAE49 SLP173 P0004 T01780128 $
 
KRME - Rome/Griffiss Af, New York, USA
Distance from station: E 39mi, 62km
Updated: Sat, 25-May-2019 12:53pm EDT
Overcast
Overcast
 Wind from SSE
Wind: SSE 9 mph , 15 km/h
Temperature: 68°F , 20°C
Dew Point: 52°F , 11°C
Humidity: 56%
Barometer: 30.10 inHg , 1019.3 hPa
Clouds: Overcast
Visibility: 10 miles , 16 km
Cloud details: Overcast 6000 ft
2019/05/25 16:53 KRME 251653Z 15008KT 10SM OVC060 20/11 A3010 RMK AO2 SLP189 T02000111
KITH - Ithaca/Tompkins, New York, USA
Distance from station: SSW 51mi, 82km
Updated: Sat, 25-May-2019 12:56pm EDT
Mostly cloudy
Mostly cloudy
 Wind from ESE
Wind: ESE 9 mph , 15 km/h
Temperature: 63°F , 17°C
Dew Point: 57°F , 14°C
Humidity: 83%
Barometer: 30.09 inHg , 1019 hPa
Clouds: Mostly cloudy
Visibility: 10 miles , 16 km
Cloud details: Mostly cloudy 3900 ft
2019/05/25 16:56 KITH 251656Z 12008KT 10SM BKN039 17/14 A3009 RMK AO2 RAE39 SLP191 P0001 T01720144
 
KART - Watertown, New York, USA
Distance from station: N 56mi, 91km
Updated: Sat, 25-May-2019 12:56pm EDT
Light rain, Mist, Overcast
Light rain, Mist, Overcast
 Wind from SE
Wind: SE 6 mph , 9 km/h
Temperature: 61°F , 16°C
Dew Point: 57°F , 14°C
Humidity: 88%
Barometer: 30.02 inHg , 1016.6 hPa
Summary: Light rain, Mist
Clouds: Overcast
Visibility: 3 miles , 5 km
Cloud details: Few Clouds 6000 ft
Partly cloudy 7500 ft
Overcast 10000 ft
2019/05/25 16:56 KART 251656Z AUTO 14005KT 3SM -RA BR FEW060 SCT075 OVC100 16/14 A3002 RMK AO2 RAB14 SLP166 P0007 T01560139 $
KPEO - Penn Yan, New York, USA
Distance from station: SW 58mi, 93km
Updated: Sat, 25-May-2019 12:53pm EDT
Few Clouds
Few Clouds
 Wind from S
Wind: S 9 mph , 15 km/h
Temperature: 73°F , 23°C
Dew Point: 55°F , 13°C
Humidity: 53%
Barometer: 30.04 inHg , 1017.3 hPa
Clouds: Few Clouds
Visibility: 10 miles , 16 km
Cloud details: Few Clouds 5000 ft
2019/05/25 16:53 KPEO 251653Z AUTO 19008KT 10SM FEW050 23/13 A3004 RMK AO2 RAE1558 SLP168 P0000 T02280133
 
KGTB - Fort Drum/Wheele, New York, USA
Distance from station: NNE 64mi, 102km
Updated: Sat, 25-May-2019 12:56pm EDT
Light rain, Overcast
Light rain, Overcast
 Wind from SSW
Wind: SSW 9 mph , 15 km/h
Temperature: 64°F , 18°C
Dew Point: 55°F , 13°C
Humidity: 73%
Barometer: 30.05 inHg , 1017.6 hPa
Summary: Light rain
Clouds: Overcast
Visibility: 10 miles , 16 km
Cloud details: Overcast 5500 ft
2019/05/25 16:56 KGTB 251656Z AUTO 20008KT 10SM -RA OVC055 18/13 A3005 RMK AO2 DZB25E30RAB30 SLP177 P0002 T01770130 $
CWQP - Point Petre (mar, Ontario, Canada
Distance from station: NW 67mi, 107km
Updated: Sat, 25-May-2019 1:00pm EDT

 Wind from SSE
Wind: SSE 17 mph , 28 km/h
Temperature: 48°F , 9°C
Wind Chill: 42°F , 6°C
Dew Point: 48°F , 9°C
Humidity: 100%
2019/05/25 17:00 CWQP 251700Z AUTO 15015KT 09/09 RMK AO1 PK WND 16017/1656 SLP168 T00940089 58021
 
KBGM - Binghamton, New York, USA
Distance from station: S 67mi, 107km
Updated: Sat, 25-May-2019 12:53pm EDT
Overcast
Overcast
 Wind from S
Wind: S 9 mph , 15 km/h
Temperature: 61°F , 16°C
Dew Point: 54°F , 12°C
Humidity: 77%
Barometer: 30.13 inHg , 1020.3 hPa
Clouds: Overcast
Visibility: 10 miles , 16 km
Cloud details: Overcast 3800 ft
2019/05/25 16:53 KBGM 251653Z 18008KT 10SM OVC038 16/12 A3013 RMK AO2 RAB25E52 SLP203 P0002 T01560117
CYGK - Kingston Arpt (m, Ontario, Canada
Distance from station: NNW 75mi, 121km
Updated: Sat, 25-May-2019 1:00pm EDT
Light rain, Showers, Overcast
Light rain, Showers, Overcast
 Wind from S
Wind: S 8 mph , 13 km/h
Temperature: 54°F , 12°C
Dew Point: 54°F , 12°C
Humidity: 100%
Barometer: 30.05 inHg , 1017.6 hPa
Summary: Light rain, Showers
Clouds: Overcast
Visibility: 7 miles , 11 km
Cloud details: Overcast 3500 ft
2019/05/25 17:00 CYGK 251700Z 19007KT 7SM -SHRA OVC035 12/12 A3005 RMK SC8 CVTCV CLD ASOCTD PRESRR SLP178